Time;durP1;ratioP1;P1;durP2;ratioP2;P2;SDS_P1;SDS_P2;PMS_P1;PMS_P2;Temp;Humidity;BMP_temperature;BMP_pressure;BME280_temperature;BME280_humidity;BME280_pressure;Samples;Min_cycle;Max_cycle;Signal;HPM_P1;HPM_P2
2022/01/11 00:01:31;;;;;;;23.73;13.43;;;;;;;-1.26;100.00;98996.11;1691223;85;21025;-72
2022/01/11 00:04:00;;;;;;;21.67;12.03;;;;;;;-1.25;100.00;98996.48;1662100;85;21040;-72
2022/01/11 00:06:35;;;;;;;26.20;16.03;;;;;;;-1.24;100.00;98994.67;1683241;85;21078;-72
2022/01/11 00:09:07;;;;;;;22.93;13.05;;;;;;;-1.25;100.00;99002.28;1691090;84;21074;-72
2022/01/11 00:11:30;;;;;;;21.80;12.93;;;;;;;-1.29;100.00;98996.38;1684208;84;21559;-72
2022/01/11 00:13:57;;;;;;;21.03;11.90;;;;;;;-1.31;100.00;99000.09;1683209;85;21042;-72
2022/01/11 00:16:26;;;;;;;18.60;10.80;;;;;;;-1.32;100.00;99000.59;1683097;85;21114;-73
2022/01/11 00:18:54;;;;;;;25.47;14.90;;;;;;;-1.34;100.00;99011.31;1683144;85;21067;-71
2022/01/11 00:21:24;;;;;;;21.13;12.87;;;;;;;-1.34;100.00;99007.34;1686198;84;21047;-71
2022/01/11 00:26:37;;;;;;;24.47;13.63;;;;;;;-1.35;100.00;99012.30;1718115;84;21614;-72
2022/01/11 00:29:04;;;;;;;23.50;15.40;;;;;;;-1.35;100.00;99022.04;1718128;82;21078;-72
2022/01/11 00:31:35;;;;;;;20.87;12.53;;;;;;;-1.37;100.00;99022.16;1717682;82;21038;-72
2022/01/11 00:34:04;;;;;;;18.27;10.67;;;;;;;-1.38;100.00;99027.12;1734513;82;21066;-72
2022/01/11 00:36:41;;;;;;;20.87;12.03;;;;;;;-1.37;100.00;99031.44;1686850;84;21109;-72
2022/01/11 00:39:01;;;;;;;19.27;11.63;;;;;;;-1.39;100.00;99029.39;1665597;86;21024;-72
2022/01/11 00:41:29;;;;;;;19.73;11.30;;;;;;;-1.37;100.00;99026.13;1682364;85;21010;-73
2022/01/11 00:43:58;;;;;;;21.80;11.57;;;;;;;-1.36;100.00;99026.51;1665621;86;21517;-72
2022/01/11 00:46:27;;;;;;;21.50;11.70;;;;;;;-1.35;100.00;99031.32;1682553;85;20995;-72
2022/01/11 00:48:55;;;;;;;21.93;12.13;;;;;;;-1.33;100.00;99034.69;1665435;86;21103;-72
2022/01/11 00:51:22;;;;;;;22.00;13.60;;;;;;;-1.35;100.00;99033.52;1682638;84;21542;-73
2022/01/11 00:53:49;;;;;;;19.73;11.57;;;;;;;-1.35;100.00;99033.52;1665031;86;21069;-72
2022/01/11 00:56:19;;;;;;;18.27;10.60;;;;;;;-1.35;100.00;99037.49;1682713;85;21026;-73
2022/01/11 00:58:47;;;;;;;18.33;10.27;;;;;;;-1.35;100.00;99039.28;1665532;86;21370;-72
2022/01/11 01:01:14;;;;;;;20.13;11.60;;;;;;;-1.35;100.00;99040.14;1681965;85;21026;-71
2022/01/11 01:03:41;;;;;;;20.37;12.20;;;;;;;-1.36;100.00;99043.75;1654679;86;21064;-72
2022/01/11 01:06:12;;;;;;;24.13;13.43;;;;;;;-1.37;100.00;99047.84;1654954;86;21039;-72
2022/01/11 01:08:42;;;;;;;20.93;11.50;;;;;;;-1.38;100.00;99048.33;1654965;85;21132;-71
2022/01/11 01:11:12;;;;;;;19.97;11.37;;;;;;;-1.36;100.00;99054.84;1655269;87;21052;-72
2022/01/11 01:13:41;;;;;;;21.30;11.80;;;;;;;-1.34;100.00;99047.61;1655691;86;21053;-72
2022/01/11 01:16:11;;;;;;;20.30;11.20;;;;;;;-1.32;100.00;99049.66;1655130;86;21048;-72
2022/01/11 01:18:57;;;;;;;23.23;12.77;;;;;;;-1.33;100.00;99054.59;1590873;90;21527;-72
2022/01/11 01:21:25;;;;;;;19.87;11.93;;;;;;;-1.36;100.00;99055.68;1651761;86;21030;-71
2022/01/11 01:23:53;;;;;;;18.97;10.97;;;;;;;-1.38;100.00;99058.94;1596831;89;21043;-72
2022/01/11 01:26:20;;;;;;;18.03;10.63;;;;;;;-1.39;100.00;99052.42;1652320;86;21048;-71
2022/01/11 01:28:49;;;;;;;23.13;12.60;;;;;;;-1.40;100.00;99049.39;1596198;89;21083;-71
2022/01/11 01:31:19;;;;;;;25.73;17.73;;;;;;;-1.40;100.00;99046.74;1651970;87;21042;-73
2022/01/11 01:33:46;;;;;;;25.73;14.97;;;;;;;-1.41;100.00;99039.77;1652345;87;21019;-72
2022/01/11 01:36:16;;;;;;;24.93;15.03;;;;;;;-1.40;100.00;99042.77;1633691;86;21094;-71
2022/01/11 01:38:43;;;;;;;25.33;14.73;;;;;;;-1.41;100.00;99043.26;1639195;86;21631;-71
2022/01/11 01:43:43;;;;;;;24.32;13.00;;;;;;;-1.43;100.00;99046.52;1592590;90;21154;-72
2022/01/11 01:46:10;;;;;;;22.83;13.23;;;;;;;-1.42;100.00;99044.20;1631289;87;21040;-72
2022/01/11 01:48:40;;;;;;;24.63;13.83;;;;;;;-1.41;100.00;99051.70;1614600;88;21076;-72
2022/01/11 01:51:11;;;;;;;26.53;14.53;;;;;;;-1.43;100.00;99058.45;1573036;90;21032;-72
2022/01/11 01:53:45;;;;;;;28.33;15.33;;;;;;;-1.45;100.00;99053.75;1627202;88;21107;-71
2022/01/11 01:56:12;;;;;;;25.43;13.93;;;;;;;-1.46;100.00;99049.89;1573588;90;21052;-72
2022/01/11 01:58:39;;;;;;;29.07;17.43;;;;;;;-1.47;100.00;99048.19;1627503;88;21055;-72
2022/01/11 02:01:09;;;;;;;23.10;13.67;;;;;;;-1.48;100.00;99056.63;1594255;89;21064;-72
2022/01/11 02:03:39;;;;;;;21.43;12.43;;;;;;;-1.49;100.00;99046.14;1618440;89;21073;-72
2022/01/11 02:06:11;;;;;;;23.00;13.43;;;;;;;-1.49;100.00;99050.95;1640241;86;21527;-71
2022/01/11 02:08:46;;;;;;;26.43;16.07;;;;;;;-1.49;100.00;99052.77;1579199;91;21065;-72
2022/01/11 02:11:18;;;;;;;26.30;14.53;;;;;;;-1.49;100.00;99054.93;1559192;91;21045;-72
2022/01/11 02:13:47;;;;;;;25.23;14.07;;;;;;;-1.47;100.00;99054.36;1579676;91;21626;-71
2022/01/11 02:16:16;;;;;;;26.93;14.53;;;;;;;-1.48;100.00;99050.00;1579771;91;21040;-72
2022/01/11 02:18:46;;;;;;;29.10;16.43;;;;;;;-1.49;100.00;99044.33;1579477;90;21107;-72
2022/01/11 02:21:15;;;;;;;26.63;15.50;;;;;;;-1.47;100.00;99046.86;1579377;91;21060;-71
2022/01/11 02:23:42;;;;;;;30.93;16.57;;;;;;;-1.47;100.00;99043.75;1559428;91;21068;-72
2022/01/11 02:26:09;;;;;;;28.33;15.73;;;;;;;-1.46;100.00;99045.91;1549731;91;21091;-72
2022/01/11 02:28:37;;;;;;;32.53;17.53;;;;;;;-1.48;100.00;99046.52;1532152;94;21614;-71
2022/01/11 02:31:07;;;;;;;35.27;19.70;;;;;;;-1.53;100.00;99051.67;1532250;92;21102;-71
2022/01/11 02:33:46;;;;;;;32.45;18.00;;;;;;;-1.57;100.00;99049.39;1532378;94;21607;-71
2022/01/11 02:36:34;;;;;;;34.53;19.43;;;;;;;-1.58;100.00;99049.02;1533430;93;21121;-71
2022/01/11 02:39:09;;;;;;;32.60;17.43;;;;;;;-1.62;100.00;99045.76;1473520;97;21095;-72
2022/01/11 02:45:14;;;;;;;37.30;20.90;;;;;;;-1.67;100.00;99044.43;1486762;95;21151;-71
2022/01/11 02:47:43;;;;;;;37.63;20.50;;;;;;;-1.69;100.00;99052.50;1466456;95;21158;-71
2022/01/11 02:50:12;;;;;;;39.20;22.97;;;;;;;-1.70;100.00;99048.63;1507538;94;21102;-71
2022/01/11 02:52:41;;;;;;;34.17;19.33;;;;;;;-1.72;100.00;99050.94;1507809;94;21105;-74
2022/01/11 02:55:22;;;;;;;32.27;18.23;;;;;;;-1.75;100.00;99047.19;1507510;94;21693;-72
2022/01/11 02:57:49;;;;;;;32.70;18.87;;;;;;;-1.77;100.00;99046.47;1507691;95;21512;-71
2022/01/11 03:00:23;;;;;;;37.20;21.17;;;;;;;-1.78;100.00;99050.06;1507886;94;21086;-73
2022/01/11 03:02:52;;;;;;;39.87;21.57;;;;;;;-1.80;100.00;99055.13;1507499;95;21512;-71
2022/01/11 03:05:21;;;;;;;33.50;19.87;;;;;;;-1.82;100.00;99057.06;1507540;95;21094;-72
2022/01/11 03:07:49;;;;;;;38.30;21.93;;;;;;;-1.83;100.00;99060.17;1507656;95;21658;-71
2022/01/11 03:13:01;;;;;;;33.07;18.53;;;;;;;-1.86;100.00;99072.34;1541996;93;21657;-70
2022/01/11 03:15:31;;;;;;;29.77;17.62;;;;;;;-1.88;100.00;99066.78;1556661;88;22194;-71
2022/01/11 03:18:05;;;;;;;35.10;18.13;;;;;;;-1.89;100.00;99073.03;1623835;87;21051;-71
2022/01/11 03:20:36;;;;;;;33.00;17.00;;;;;;;-1.89;100.00;99076.55;1586266;90;21151;-71
2022/01/11 03:23:04;;;;;;;29.77;15.87;;;;;;;-1.89;100.00;99080.52;1565786;90;21083;-71
2022/01/11 03:25:32;;;;;;;28.60;15.27;;;;;;;-1.89;100.00;99083.17;1622740;88;21080;-71
2022/01/11 03:28:00;;;;;;;26.07;14.07;;;;;;;-1.93;100.00;99087.86;1585067;90;21115;-70
2022/01/11 03:30:27;;;;;;;25.27;13.97;;;;;;;-1.95;100.00;99092.43;1622848;88;21127;-71
2022/01/11 03:32:56;;;;;;;23.53;12.47;;;;;;;-1.95;100.00;99096.86;1586051;90;21143;-72
2022/01/11 03:35:25;;;;;;;23.93;11.83;;;;;;;-1.99;100.00;99095.41;1585841;90;21576;-71
2022/01/11 03:37:52;;;;;;;21.10;11.07;;;;;;;-2.01;100.00;99103.47;1621450;87;21107;-71
2022/01/11 03:40:23;;;;;;;21.33;11.73;;;;;;;-2.03;100.00;99106.72;1584046;91;21095;-70
2022/01/11 03:42:50;;;;;;;22.03;11.90;;;;;;;-2.03;100.00;99111.18;1610207;89;21068;-70
2022/01/11 03:45:21;;;;;;;24.83;15.03;;;;;;;-2.04;100.00;99114.28;1583944;91;21091;-71
2022/01/11 03:47:51;;;;;;;21.03;11.97;;;;;;;-2.03;100.00;99123.10;1609915;89;21072;-71
2022/01/11 03:50:18;;;;;;;21.57;11.07;;;;;;;-2.05;100.00;99116.59;1596224;90;21606;-71
2022/01/11 03:52:45;;;;;;;21.13;10.33;;;;;;;-2.07;100.00;99122.48;1596248;90;21528;-71
2022/01/11 03:55:20;;;;;;;29.97;17.17;;;;;;;-2.10;100.00;99119.56;1610540;88;21150;-71
2022/01/11 03:57:44;;;;;;;26.37;13.23;;;;;;;-2.11;100.00;99124.97;1628362;87;21070;-71
2022/01/11 04:00:15;;;;;;;26.63;13.23;;;;;;;-2.16;100.00;99131.95;1627722;88;21083;-72
2022/01/11 04:02:43;;;;;;;28.10;14.33;;;;;;;-2.18;100.00;99136.97;1585584;90;21046;-71
2022/01/11 04:05:13;;;;;;;28.53;13.97;;;;;;;-2.23;100.00;99140.44;1605409;89;21100;-70
2022/01/11 04:07:41;;;;;;;30.90;13.83;;;;;;;-2.24;100.00;99152.00;1587999;90;21085;-71
2022/01/11 04:10:10;;;;;;;26.90;15.43;;;;;;;-2.26;100.00;99153.44;1626285;88;21058;-71
2022/01/11 04:12:47;;;;;;;25.67;14.07;;;;;;;-2.27;100.00;99149.57;1626276;87;21118;-72
2022/01/11 04:15:13;;;;;;;26.83;14.63;;;;;;;-2.28;100.00;99147.41;1626904;88;21058;-71
2022/01/11 04:17:42;;;;;;;25.50;13.03;;;;;;;-2.28;100.00;99161.97;1626506;88;21622;-71
2022/01/11 04:20:10;;;;;;;28.93;16.50;;;;;;;-2.30;100.00;99164.73;1626372;87;21565;-72
2022/01/11 04:22:37;;;;;;;34.53;19.03;;;;;;;-2.28;100.00;99164.63;1626309;88;21066;-70
2022/01/11 04:25:05;;;;;;;46.83;27.97;;;;;;;-2.25;100.00;99167.02;1626432;88;21042;-72
2022/01/11 04:27:34;;;;;;;43.80;23.00;;;;;;;-2.23;100.00;99166.46;1626103;88;21671;-70
2022/01/11 04:30:01;;;;;;;46.80;22.60;;;;;;;-2.23;100.00;99168.24;1626600;88;21046;-74
2022/01/11 04:32:30;;;;;;;39.67;19.27;;;;;;;-2.24;100.00;99172.70;1626851;88;21086;-70
2022/01/11 04:35:04;;;;;;;30.23;13.77;;;;;;;-2.24;100.00;99179.32;1626170;88;21104;-73
2022/01/11 04:37:32;;;;;;;27.87;13.77;;;;;;;-2.26;100.00;99173.30;1634894;87;21089;-71
2022/01/11 04:39:59;;;;;;;24.00;13.00;;;;;;;-2.26;100.00;99179.92;1640467;87;21042;-70
2022/01/11 04:42:27;;;;;;;21.63;10.90;;;;;;;-2.26;100.00;99181.73;1640525;87;21073;-74
2022/01/11 04:44:54;;;;;;;20.50;10.97;;;;;;;-2.25;100.00;99178.11;1641242;86;21029;-76
2022/01/11 04:47:21;;;;;;;22.07;11.30;;;;;;;-2.26;100.00;99182.56;1655891;86;21052;-79
2022/01/11 04:49:49;;;;;;;20.30;10.73;;;;;;;-2.27;100.00;99182.67;1665511;86;21087;-79
2022/01/11 04:52:16;;;;;;;23.10;11.17;;;;;;;-2.31;100.00;99184.20;1647357;87;21010;-73
2022/01/11 04:54:44;;;;;;;22.80;11.10;;;;;;;-2.32;100.00;99189.61;1658101;85;21044;-74
2022/01/11 04:57:12;;;;;;;22.53;10.77;;;;;;;-2.34;100.00;99184.91;1665463;85;21077;-73
2022/01/11 04:59:39;;;;;;;25.07;11.83;;;;;;;-2.37;100.00;99189.96;1665029;85;21061;-73
2022/01/11 05:02:06;;;;;;;21.87;11.70;;;;;;;-2.38;100.00;99191.39;1647844;86;21574;-73
2022/01/11 05:04:36;;;;;;;25.53;13.20;;;;;;;-2.39;100.00;99191.88;1666794;86;21062;-74
2022/01/11 05:07:04;;;;;;;26.20;13.23;;;;;;;-2.37;100.00;99195.74;1667849;85;21017;-72
2022/01/11 05:09:33;;;;;;;27.90;14.40;;;;;;;-2.37;100.00;99199.23;1666362;85;21543;-73
2022/01/11 05:12:00;;;;;;;26.33;14.83;;;;;;;-2.37;100.00;99205.02;1666038;86;21657;-72
2022/01/11 05:14:27;;;;;;;27.67;15.40;;;;;;;-2.37;100.00;99207.66;1670210;86;21085;-72
2022/01/11 05:16:54;;;;;;;31.80;16.87;;;;;;;-2.40;100.00;99211.35;1695191;84;21044;-74
2022/01/11 05:19:21;;;;;;;24.97;12.93;;;;;;;-2.39;100.00;99214.84;1665124;85;21037;-75
2022/01/11 05:21:49;;;;;;;28.53;17.30;;;;;;;-2.39;100.00;99217.03;1665751;86;21078;-75
2022/01/11 05:24:18;;;;;;;60.10;32.90;;;;;;;-2.41;100.00;99211.45;1666118;85;20986;-68
2022/01/11 05:26:49;;;;;;;27.60;15.13;;;;;;;-2.42;100.00;99217.73;1696268;83;21080;-76
2022/01/11 05:29:16;;;;;;;26.90;14.07;;;;;;;-2.46;100.00;99230.33;1666807;85;21030;-77
2022/01/11 05:31:43;;;;;;;25.13;13.20;;;;;;;-2.52;100.00;99234.72;1666736;86;21591;-76
2022/01/11 05:34:10;;;;;;;25.23;13.40;;;;;;;-2.54;100.00;99241.44;1668173;86;21041;-77
2022/01/11 05:37:05;;;;;;;29.43;15.10;;;;;;;-2.60;100.00;99243.21;1628533;85;21082;-76
2022/01/11 05:39:32;;;;;;;30.87;16.37;;;;;;;-2.62;100.00;99252.19;1681736;84;21503;-76
2022/01/11 05:42:10;;;;;;;40.20;21.63;;;;;;;-2.66;100.00;99247.59;1678794;84;21078;-77
2022/01/11 05:44:37;;;;;;;57.50;29.70;;;;;;;-2.67;100.00;99256.50;1677826;84;21047;-78
2022/01/11 05:47:05;;;;;;;65.17;35.30;;;;;;;-2.69;100.00;99267.67;1676453;85;21093;-77
2022/01/11 05:49:32;;;;;;;33.50;18.53;;;;;;;-2.69;100.00;99266.35;1677117;86;21046;-78
2022/01/11 05:51:59;;;;;;;42.27;24.10;;;;;;;-2.72;100.00;99271.36;1677985;85;21055;-78
2022/01/11 05:54:26;;;;;;;30.20;16.57;;;;;;;-2.73;100.00;99272.30;1677908;85;21058;-78
2022/01/11 05:56:53;;;;;;;24.03;12.73;;;;;;;-2.74;100.00;99275.08;1681649;85;21520;-78
2022/01/11 05:59:20;;;;;;;21.50;12.63;;;;;;;-2.76;100.00;99285.77;1678226;85;21035;-79
2022/01/11 06:01:49;;;;;;;21.87;12.10;;;;;;;-2.80;100.00;99285.58;1670112;84;21039;-80
2022/01/11 06:04:18;;;;;;;21.30;12.53;;;;;;;-2.82;100.00;99286.66;1672408;86;21103;-74
2022/01/11 06:06:47;;;;;;;20.37;11.60;;;;;;;-2.83;100.00;99290.23;1681818;85;21570;-71
2022/01/11 06:09:15;;;;;;;22.90;12.50;;;;;;;-2.86;100.00;99291.30;1665604;86;21107;-80
2022/01/11 06:11:42;;;;;;;25.13;12.63;;;;;;;-2.87;100.00;99296.22;1695696;84;21017;-78
2022/01/11 06:14:10;;;;;;;23.60;13.53;;;;;;;-2.87;100.00;99297.08;1695119;84;21071;-78
2022/01/11 06:16:37;;;;;;;30.70;15.80;;;;;;;-2.88;100.00;99301.98;1661774;86;21080;-79
2022/01/11 06:19:06;;;;;;;36.07;19.73;;;;;;;-2.91;100.00;99297.38;1673442;84;21048;-80
2022/01/11 06:21:53;;;;;;;30.00;16.20;;;;;;;-2.93;100.00;99303.26;1603582;89;21105;-79
2022/01/11 06:24:21;;;;;;;31.93;17.37;;;;;;;-2.96;100.00;99304.30;1634422;88;21566;-76
2022/01/11 06:26:48;;;;;;;46.10;28.67;;;;;;;-2.97;100.00;99307.91;1639397;86;21551;-77
2022/01/11 06:29:15;;;;;;;35.60;18.97;;;;;;;-2.99;100.00;99319.07;1654171;86;21631;-75
2022/01/11 06:31:43;;;;;;;38.80;23.30;;;;;;;-3.00;100.00;99324.46;1631130;87;21048;-74
2022/01/11 06:34:10;;;;;;;31.20;19.77;;;;;;;-3.01;100.00;99328.91;1572598;89;21036;-74
2022/01/11 06:36:37;;;;;;;24.00;14.47;;;;;;;-2.99;100.00;99319.52;1598653;89;21076;-77
2022/01/11 06:39:07;;;;;;;24.63;14.97;;;;;;;-2.99;100.00;99334.08;1606368;89;21104;-77
2022/01/11 06:41:35;;;;;;;29.63;17.20;;;;;;;-3.01;100.00;99335.98;1585313;88;21127;-75
2022/01/11 06:44:05;;;;;;;24.27;14.27;;;;;;;-3.03;100.00;99332.59;1608327;89;21065;-78
2022/01/11 06:46:35;;;;;;;26.50;14.60;;;;;;;-3.05;100.00;99343.27;1605629;88;21060;-73
2022/01/11 06:49:04;;;;;;;25.63;12.87;;;;;;;-3.06;100.00;99342.43;1629532;87;21119;-70
2022/01/11 06:51:33;;;;;;;24.40;13.03;;;;;;;-3.08;100.00;99352.27;1630698;87;21061;-73
2022/01/11 06:54:00;;;;;;;31.23;17.70;;;;;;;-3.11;100.00;99348.50;1592323;88;21108;-73
2022/01/11 06:56:28;;;;;;;23.40;13.40;;;;;;;-3.11;100.00;99351.14;1597545;89;21104;-72
2022/01/11 06:58:57;;;;;;;32.23;19.87;;;;;;;-3.08;100.00;99350.08;1615013;89;21582;-73
2022/01/11 07:01:24;;;;;;;48.17;34.30;;;;;;;-3.06;100.00;99350.37;1613695;89;21077;-72
2022/01/11 07:03:51;;;;;;;35.63;23.17;;;;;;;-3.06;100.00;99349.05;1628214;88;21561;-73
2022/01/11 07:06:23;;;;;;;39.77;25.83;;;;;;;-3.06;100.00;99353.50;1628176;88;21113;-72
2022/01/11 07:08:51;;;;;;;71.93;35.97;;;;;;;-3.06;100.00;99363.59;1641822;83;21000;-75
2022/01/11 07:11:21;;;;;;;191.33;86.60;;;;;;;-3.08;100.00;99366.81;1716064;84;21054;-76
2022/01/11 07:13:48;;;;;;;80.60;39.37;;;;;;;-3.10;100.00;99365.20;1712812;83;21004;-74
2022/01/11 07:16:17;;;;;;;162.67;86.43;;;;;;;-3.10;100.00;99369.17;1736162;83;22449;-73
2022/01/11 07:18:44;;;;;;;92.33;51.73;;;;;;;-3.12;100.00;99364.47;1735693;83;20999;-77
2022/01/11 07:21:11;;;;;;;52.93;31.93;;;;;;;-3.14;100.00;99365.05;1735373;83;21047;-80
2022/01/11 07:23:39;;;;;;;52.07;35.07;;;;;;;-3.15;100.00;99365.53;1699011;84;21051;-80
2022/01/11 07:26:09;;;;;;;62.77;44.17;;;;;;;-3.16;100.00;99369.59;1699006;84;21007;-76
2022/01/11 07:28:36;;;;;;;38.10;22.80;;;;;;;-3.16;100.00;99367.78;1704009;84;21039;-75
2022/01/11 07:31:05;;;;;;;39.50;22.63;;;;;;;-3.13;100.00;99369.40;1697600;84;21059;-78
2022/01/11 07:33:34;;;;;;;32.13;18.07;;;;;;;-3.11;100.00;99367.50;1703029;84;21024;-76
2022/01/11 07:36:02;;;;;;;34.63;21.03;;;;;;;-3.10;100.00;99371.37;1698218;84;21059;-77
2022/01/11 07:38:29;;;;;;;35.40;24.33;;;;;;;-3.06;100.00;99378.63;1698160;84;21074;-76
2022/01/11 07:40:56;;;;;;;33.27;21.30;;;;;;;-3.04;100.00;99380.69;1698160;84;21035;-75
2022/01/11 07:43:40;;;;;;;28.27;16.17;;;;;;;-3.03;100.00;99379.72;1701994;84;21548;-76
2022/01/11 07:46:09;;;;;;;34.23;20.83;;;;;;;-3.06;100.00;99378.63;1698926;84;21121;-76
2022/01/11 07:48:38;;;;;;;45.37;28.03;;;;;;;-3.06;100.00;99385.23;1700696;84;21057;-75
2022/01/11 07:51:05;;;;;;;45.50;27.20;;;;;;;-3.04;100.00;99383.34;1679986;85;21101;-75
2022/01/11 07:53:34;;;;;;;43.13;22.70;;;;;;;-3.04;100.00;99382.50;1680167;84;21047;-76
2022/01/11 07:56:03;;;;;;;37.40;21.60;;;;;;;-3.08;100.00;99382.69;1670798;85;21102;-76
2022/01/11 07:58:32;;;;;;;38.50;26.83;;;;;;;-3.07;100.00;99387.02;1647904;87;21104;-75
2022/01/11 08:00:59;;;;;;;33.67;19.53;;;;;;;-3.06;100.00;99393.17;1648305;87;21108;-73
2022/01/11 08:03:28;;;;;;;53.70;30.80;;;;;;;-3.03;100.00;99386.82;1666446;86;21040;-76
2022/01/11 08:05:58;;;;;;;40.20;27.87;;;;;;;-3.04;100.00;99398.36;1615012;88;21036;-76
2022/01/11 08:08:26;;;;;;;26.83;16.93;;;;;;;-3.05;100.00;99389.56;1594504;89;21079;-75
2022/01/11 08:10:55;;;;;;;39.27;27.20;;;;;;;-3.09;100.00;99396.01;1616447;89;21055;-75
2022/01/11 08:13:24;;;;;;;26.50;17.13;;;;;;;-3.11;100.00;99400.55;1616352;89;21092;-75
2022/01/11 08:15:51;;;;;;;29.73;17.90;;;;;;;-3.15;100.00;99394.62;1616426;89;21091;-75
2022/01/11 08:18:19;;;;;;;32.63;21.03;;;;;;;-3.15;100.00;99405.64;1616268;89;21043;-79
2022/01/11 08:20:47;;;;;;;40.43;23.93;;;;;;;-3.18;100.00;99404.55;1616315;89;21040;-76
2022/01/11 08:23:16;;;;;;;98.53;49.53;;;;;;;-3.16;100.00;99400.84;1594860;89;21059;-75
2022/01/11 08:25:43;;;;;;;66.93;38.90;;;;;;;-3.10;100.00;99392.98;1616387;88;21179;-79
2022/01/11 08:28:11;;;;;;;37.20;21.33;;;;;;;-3.05;100.00;99392.20;1611822;88;21034;-76
2022/01/11 08:30:40;;;;;;;50.27;29.37;;;;;;;-3.00;100.00;99392.75;1617598;87;21054;-75
2022/01/11 08:33:15;;;;;;;31.53;18.47;;;;;;;-2.99;100.00;99384.34;1613762;88;21256;-76
2022/01/11 08:35:43;;;;;;;33.87;20.53;;;;;;;-3.00;100.00;99386.14;1603311;88;21110;-75
2022/01/11 08:38:11;;;;;;;76.33;50.77;;;;;;;-3.01;100.00;99385.78;1629004;87;21613;-77
2022/01/11 08:40:38;;;;;;;73.40;42.40;;;;;;;-3.04;100.00;99393.91;1646472;85;21062;-76
2022/01/11 08:43:06;;;;;;;85.77;56.27;;;;;;;-3.04;100.00;99388.63;1698303;83;21058;-75
2022/01/11 08:45:35;;;;;;;72.13;49.80;;;;;;;-3.04;100.00;99388.63;1734978;82;21042;-75
2022/01/11 08:48:05;;;;;;;123.33;56.20;;;;;;;-3.05;100.00;99384.27;1732754;81;21043;-76
2022/01/11 08:50:33;;;;;;;93.20;47.67;;;;;;;-3.06;100.00;99386.56;1735568;82;21016;-77
2022/01/11 08:53:00;;;;;;;58.27;30.93;;;;;;;-3.06;100.00;99374.17;1726206;82;20956;-75
2022/01/11 08:55:28;;;;;;;101.80;57.43;;;;;;;-3.04;100.00;99382.50;1738193;82;21065;-75
2022/01/11 08:57:56;;;;;;;50.97;34.60;;;;;;;-3.04;100.00;99380.69;1730636;82;21050;-76
2022/01/11 09:00:23;;;;;;;67.07;45.63;;;;;;;-3.03;100.00;99377.56;1686628;84;21084;-76
2022/01/11 09:02:52;;;;;;;54.90;38.67;;;;;;;-3.04;100.00;99379.36;1579368;89;21549;-77
2022/01/11 09:05:20;;;;;;;39.03;27.10;;;;;;;-3.06;100.00;99374.66;1584009;90;21063;-77
2022/01/11 09:07:48;;;;;;;47.47;33.93;;;;;;;-3.07;100.00;99368.98;1577416;90;21033;-75
2022/01/11 09:10:15;;;;;;;44.87;31.97;;;;;;;-3.06;100.00;99372.02;1576236;90;21549;-76
2022/01/11 09:12:43;;;;;;;37.97;24.00;;;;;;;-3.06;100.00;99364.91;1585164;90;21059;-76
2022/01/11 09:15:10;;;;;;;46.70;35.00;;;;;;;-3.10;100.00;99362.11;1583313;90;21043;-75
2022/01/11 09:17:40;;;;;;;36.80;24.90;;;;;;;-3.12;100.00;99363.98;1578694;90;21581;-76
2022/01/11 09:20:10;;;;;;;44.63;32.73;;;;;;;-3.14;100.00;99364.56;1572109;90;21469;-76
2022/01/11 09:22:38;;;;;;;34.10;22.37;;;;;;;-3.17;100.00;99366.11;1565002;90;21033;-78
2022/01/11 09:25:07;;;;;;;36.57;22.03;;;;;;;-3.15;100.00;99372.59;1569176;90;21034;-77
2022/01/11 09:27:36;;;;;;;32.10;19.33;;;;;;;-3.17;100.00;99367.43;1559502;90;21494;-75
2022/01/11 09:30:08;;;;;;;21.23;11.70;;;;;;;-3.15;100.00;99365.53;1568618;90;21092;-78
2022/01/11 09:32:37;;;;;;;46.33;31.15;;;;;;;-3.14;100.00;99361.08;1558543;90;21526;-80
2022/01/11 09:35:06;;;;;;;37.40;26.77;;;;;;;-3.11;100.00;99357.75;1572099;90;21115;-76
2022/01/11 09:37:35;;;;;;;35.20;22.70;;;;;;;-3.08;100.00;99358.88;1596381;89;21055;-74
2022/01/11 09:40:03;;;;;;;26.90;17.57;;;;;;;-3.03;100.00;99357.72;1610773;89;21094;-76
2022/01/11 09:42:31;;;;;;;38.60;24.03;;;;;;;-2.99;100.00;99353.46;1606463;89;21158;-76
2022/01/11 09:45:00;;;;;;;67.23;44.60;;;;;;;-2.95;100.00;99356.27;1578457;89;21852;-75
2022/01/11 09:47:30;;;;;;;51.87;34.07;;;;;;;-2.90;100.00;99350.68;1574669;89;21495;-76
2022/01/11 09:49:58;;;;;;;65.47;42.50;;;;;;;-2.90;100.00;99353.33;1580983;91;21592;-76
2022/01/11 09:52:26;;;;;;;55.80;39.90;;;;;;;-2.90;100.00;99346.23;1580130;91;21025;-75
2022/01/11 09:54:55;;;;;;;44.90;29.53;;;;;;;-2.87;100.00;99350.45;1571930;89;21021;-77
2022/01/11 09:57:23;;;;;;;49.20;35.47;;;;;;;-2.84;100.00;99349.42;1583374;89;21084;-79
2022/01/11 09:59:51;;;;;;;40.33;27.67;;;;;;;-2.84;100.00;99342.80;1631334;86;21029;-75
2022/01/11 10:02:37;;;;;;;51.60;36.70;;;;;;;-2.86;100.00;99346.88;1670862;86;21535;-74
2022/01/11 10:05:11;;;;;;;31.50;20.77;;;;;;;-2.83;100.00;99336.54;1613587;89;21070;-77
2022/01/11 10:07:44;;;;;;;40.37;24.97;;;;;;;-2.81;100.00;99335.50;1615808;89;21503;-75
2022/01/11 10:10:18;;;;;;;27.13;18.70;;;;;;;-2.80;100.00;99333.21;1632526;88;21534;-74
2022/01/11 10:12:49;;;;;;;70.70;48.73;;;;;;;-2.76;100.00;99334.72;1634109;88;21044;-75
2022/01/11 10:15:29;;;;;;;40.43;26.40;;;;;;;-2.71;100.00;99335.72;1601518;88;21666;-76
2022/01/11 10:17:57;;;;;;;48.47;31.37;;;;;;;-2.67;100.00;99341.19;1635962;86;21027;-76
2022/01/11 10:20:26;;;;;;;39.30;24.43;;;;;;;-2.65;100.00;99335.31;1624062;88;21261;-75
2022/01/11 10:23:02;;;;;;;31.83;19.70;;;;;;;-2.67;100.00;99332.77;1513652;95;21302;-77
2022/01/11 10:25:44;;;;;;;36.97;23.00;;;;;;;-2.71;100.00;99337.91;1478942;97;21276;-77
2022/01/11 10:28:11;;;;;;;50.40;34.10;;;;;;;-2.75;100.00;99335.56;1478232;97;21613;-76
2022/01/11 10:30:40;;;;;;;38.23;25.80;;;;;;;-2.77;100.00;99334.34;1485447;95;21100;-76
2022/01/11 10:33:09;;;;;;;49.40;32.67;;;;;;;-2.76;100.00;99334.72;1471654;97;21112;-77
2022/01/11 10:35:44;;;;;;;45.37;27.63;;;;;;;-2.75;100.00;99336.40;1450252;99;21147;-74
2022/01/11 10:38:16;;;;;;;56.77;43.10;;;;;;;-2.77;100.00;99325.56;1453209;98;21623;-76
2022/01/11 10:40:46;;;;;;;36.00;23.63;;;;;;;-2.80;100.00;99327.08;1438033;98;21566;-78
2022/01/11 10:43:16;;;;;;;50.93;35.90;;;;;;;-2.81;100.00;99334.67;1483646;96;22267;-76
2022/01/11 10:45:51;;;;;;;53.47;36.37;;;;;;;-2.81;100.00;99328.89;1441093;99;21116;-76
2022/01/11 10:48:28;;;;;;;37.20;25.23;;;;;;;-2.80;100.00;99329.73;1444441;98;21096;-78
2022/01/11 10:50:59;;;;;;;48.33;33.00;;;;;;;-2.80;100.00;99331.89;1437001;99;21155;-76
2022/01/11 10:53:32;;;;;;;35.60;24.27;;;;;;;-2.81;100.00;99335.98;1432362;100;21654;-77
2022/01/11 10:56:01;;;;;;;37.20;23.70;;;;;;;-2.83;100.00;99338.73;1422899;100;21169;-75
2022/01/11 10:58:33;;;;;;;36.97;22.40;;;;;;;-2.85;100.00;99343.28;1414906;100;21152;-75
2022/01/11 11:00:58;;;;;;;50.47;34.10;;;;;;;-2.85;100.00;99338.00;1421295;100;21115;-70
2022/01/11 11:03:29;;;;;;;38.87;22.13;;;;;;;-2.84;100.00;99341.00;1454947;98;21182;-71
2022/01/11 11:06:10;;;;;;;37.47;22.17;;;;;;;-2.83;100.00;99344.03;1449073;98;21203;-71
2022/01/11 11:08:44;;;;;;;62.97;32.67;;;;;;;-2.81;100.00;99347.90;1397494;101;21135;-75
2022/01/11 11:11:20;;;;;;;72.57;38.07;;;;;;;-2.82;100.00;99343.05;1413489;100;21214;-75
2022/01/11 11:13:51;;;;;;;69.23;42.23;;;;;;;-2.83;100.00;99346.67;1376545;102;21676;-75
2022/01/11 11:16:26;;;;;;;69.20;35.03;;;;;;;-2.83;100.00;99343.16;1394874;102;21783;-75
2022/01/11 11:18:59;;;;;;;59.97;45.87;;;;;;;-2.85;100.00;99352.55;1395927;100;21191;-75
2022/01/11 11:21:40;;;;;;;52.37;27.87;;;;;;;-2.86;100.00;99350.84;1433991;98;21167;-76
2022/01/11 11:24:13;;;;;;;90.55;42.80;;;;;;;-2.86;100.00;99353.48;1414524;100;21180;-76
2022/01/11 11:26:49;;;;;;;77.17;37.30;;;;;;;-2.83;100.00;99365.19;1436309;99;21711;-76
2022/01/11 11:29:22;;;;;;;73.77;37.57;;;;;;;-2.80;100.00;99365.45;1457353;97;21642;-77
2022/01/11 11:31:49;;;;;;;102.42;43.13;;;;;;;-2.79;100.00;99360.55;1467666;97;21122;-75